createdAt,value
2018-12-18T00:00:56.231Z,15.30
2018-12-18T00:06:01.083Z,13.40
2018-12-18T00:11:21.721Z,10.83
2018-12-18T00:16:25.881Z,15.27
2018-12-18T00:21:30.713Z,11.90
2018-12-18T00:26:34.841Z,12.20
2018-12-18T00:31:38.886Z,12.53
2018-12-18T00:36:43.574Z,12.53
2018-12-18T00:41:48.070Z,13.37
2018-12-18T00:46:52.255Z,13.40
2018-12-18T00:57:44.489Z,14.30
2018-12-18T01:02:48.740Z,11.60
2018-12-18T01:07:53.602Z,17.23
2018-12-18T01:12:57.840Z,14.07
2018-12-18T01:18:02.411Z,16.87
2018-12-18T01:23:06.221Z,10.73
2018-12-18T01:28:10.989Z,13.90
2018-12-18T01:33:14.999Z,12.93
2018-12-18T01:38:19.904Z,10.83
2018-12-18T01:43:24.839Z,9.47
2018-12-18T01:48:28.439Z,13.00
2018-12-18T01:53:32.458Z,12.87
2018-12-18T01:58:39.085Z,10.20
2018-12-18T02:03:42.864Z,11.40
2018-12-18T02:08:47.138Z,11.60
2018-12-18T02:13:51.074Z,11.80
2018-12-18T02:18:55.255Z,13.30
2018-12-18T02:23:59.729Z,10.23
2018-12-18T02:29:03.858Z,10.77
2018-12-18T02:34:13.671Z,9.23
2018-12-18T02:39:14.461Z,13.60
2018-12-18T02:44:19.329Z,9.47
2018-12-18T02:49:23.489Z,10.63
2018-12-18T02:54:27.543Z,9.13
2018-12-18T02:59:31.776Z,14.63
2018-12-18T03:04:36.235Z,11.97
2018-12-18T03:09:40.837Z,10.80
2018-12-18T03:14:44.761Z,9.30
2018-12-18T03:19:48.595Z,14.53
2018-12-18T03:24:52.963Z,11.83
2018-12-18T03:29:57.736Z,10.50
2018-12-18T03:35:01.860Z,10.43
2018-12-18T03:40:06.664Z,12.93
2018-12-18T03:45:11.375Z,13.27
2018-12-18T03:50:15.235Z,10.57
2018-12-18T03:55:19.692Z,11.47
2018-12-18T04:00:23.953Z,11.17
2018-12-18T04:05:29.413Z,10.70
2018-12-18T04:10:33.552Z,10.30
2018-12-18T04:15:37.581Z,9.87
2018-12-18T04:20:42.057Z,11.03
2018-12-18T04:25:48.252Z,8.53
2018-12-18T04:30:52.897Z,10.67
2018-12-18T04:35:57.599Z,9.73
2018-12-18T04:41:01.544Z,11.97
2018-12-18T04:46:05.617Z,10.57
2018-12-18T04:51:10.974Z,8.17
2018-12-18T04:56:15.067Z,10.17
2018-12-18T05:01:19.515Z,9.33
2018-12-18T05:06:23.960Z,8.23
2018-12-18T05:11:28.303Z,8.53
2018-12-18T05:16:31.813Z,9.33
2018-12-18T05:21:35.680Z,6.43
2018-12-18T05:26:39.240Z,8.73
2018-12-18T05:37:11.754Z,7.50
2018-12-18T05:42:16.491Z,7.07
2018-12-18T05:47:20.702Z,8.03
2018-12-18T05:52:24.524Z,6.37
2018-12-18T05:57:28.686Z,7.73
2018-12-18T06:02:32.919Z,7.00
2018-12-18T06:07:37.115Z,7.93
2018-12-18T06:12:40.974Z,6.10
2018-12-18T06:17:44.491Z,9.27
2018-12-18T06:22:48.731Z,9.23
2018-12-18T06:28:11.161Z,5.70
2018-12-18T06:33:14.719Z,8.57
2018-12-18T06:38:18.615Z,6.57
2018-12-18T06:43:22.484Z,4.93
2018-12-18T06:48:26.637Z,8.03
2018-12-18T06:53:30.712Z,6.43
2018-12-18T06:58:34.812Z,5.00
2018-12-18T07:03:38.631Z,6.40
2018-12-18T07:08:42.647Z,6.07
2018-12-18T07:13:47.023Z,10.77
2018-12-18T07:18:51.826Z,4.97
2018-12-18T07:23:55.416Z,9.20
2018-12-18T07:28:59.681Z,7.53
2018-12-18T07:34:03.812Z,7.03
2018-12-18T07:39:09.380Z,6.93
2018-12-18T07:44:13.684Z,5.77
2018-12-18T07:49:17.204Z,6.10
2018-12-18T07:54:21.503Z,9.13
2018-12-18T07:59:25.408Z,5.47
2018-12-18T08:04:30.326Z,8.37
2018-12-18T08:09:35.314Z,5.97
2018-12-18T08:14:39.772Z,8.33
2018-12-18T08:19:43.954Z,6.33
2018-12-18T08:24:47.740Z,7.13
2018-12-18T08:29:52.624Z,7.23
2018-12-18T08:34:56.427Z,7.03
2018-12-18T08:40:00.003Z,4.90
2018-12-18T08:45:03.977Z,6.13
2018-12-18T08:50:09.550Z,9.23
2018-12-18T08:55:14.438Z,6.13
2018-12-18T09:00:18.616Z,3.77
2018-12-18T09:05:22.596Z,7.70
2018-12-18T09:10:26.863Z,6.37
2018-12-18T09:15:35.875Z,5.40
2018-12-18T09:20:40.122Z,5.57
2018-12-18T09:25:43.942Z,7.87
2018-12-18T09:30:48.221Z,5.97
2018-12-18T09:35:52.780Z,5.33
2018-12-18T09:41:32.507Z,3.60
2018-12-18T09:46:36.816Z,4.70
2018-12-18T09:51:41.290Z,5.13
2018-12-18T09:56:50.832Z,5.60
2018-12-18T10:01:54.984Z,8.10
2018-12-18T10:06:58.977Z,4.77
2018-12-18T10:12:04.725Z,4.67
2018-12-18T10:17:08.825Z,5.43
2018-12-18T10:22:12.499Z,5.43
2018-12-18T10:27:16.383Z,4.17
2018-12-18T10:32:20.658Z,5.37
2018-12-18T10:37:24.874Z,4.73
2018-12-18T10:42:28.865Z,5.97
2018-12-18T10:47:33.353Z,4.03
2018-12-18T10:52:37.809Z,5.43
2018-12-18T10:57:43.161Z,4.80
2018-12-18T11:02:47.460Z,6.90
2018-12-18T11:07:57.945Z,3.93
2018-12-18T11:13:21.087Z,6.23
2018-12-18T11:18:26.523Z,4.30
2018-12-18T11:23:30.926Z,5.53
2018-12-18T11:28:34.717Z,5.63
2018-12-18T11:33:38.271Z,5.30
2018-12-18T11:38:42.427Z,5.40
2018-12-18T11:43:46.208Z,4.13
2018-12-18T11:48:51.082Z,3.57
2018-12-18T11:53:55.569Z,3.80
2018-12-18T11:59:00.413Z,4.33
2018-12-18T12:04:04.438Z,4.73
2018-12-18T12:09:08.044Z,5.23
2018-12-18T12:14:11.644Z,7.87
2018-12-18T12:19:16.064Z,7.60
2018-12-18T12:24:20.172Z,5.50
2018-12-18T12:29:24.638Z,4.50
2018-12-18T12:50:54.940Z,5.33
2018-12-18T12:55:59.732Z,4.63
2018-12-18T13:01:04.370Z,5.50
2018-12-18T13:06:09.312Z,4.73
2018-12-18T13:11:19.773Z,7.43
2018-12-18T13:16:23.777Z,9.07
2018-12-18T13:21:28.349Z,6.40
2018-12-18T13:26:32.585Z,2.37
2018-12-18T13:31:36.841Z,4.87
2018-12-18T13:36:43.145Z,3.63
2018-12-18T13:41:47.388Z,8.80
2018-12-18T13:46:51.193Z,5.90
2018-12-18T13:51:55.558Z,2.87
2018-12-18T13:56:59.452Z,5.53
2018-12-18T14:02:03.265Z,6.03
2018-12-18T14:07:07.316Z,5.20
2018-12-18T14:12:11.096Z,7.80
2018-12-18T14:17:15.207Z,10.53
2018-12-18T14:22:19.356Z,4.50
2018-12-18T14:27:23.580Z,5.10
2018-12-18T14:32:27.113Z,6.07
2018-12-18T14:37:31.332Z,4.53
2018-12-18T14:42:35.819Z,3.37
2018-12-18T14:47:39.405Z,3.73
2018-12-18T14:52:42.928Z,5.77
2018-12-18T14:57:47.361Z,5.73
2018-12-18T15:02:51.483Z,4.97
2018-12-18T15:07:55.574Z,4.50
2018-12-18T15:12:59.417Z,6.20
2018-12-18T15:18:02.952Z,4.93
2018-12-18T15:23:06.782Z,5.67
2018-12-18T15:28:11.108Z,4.93
2018-12-18T15:44:24.564Z,4.20
2018-12-18T15:49:28.144Z,3.30
2018-12-18T15:54:32.268Z,5.73
2018-12-18T15:59:37.393Z,7.07
2018-12-18T16:04:41.285Z,3.83
2018-12-18T16:09:45.181Z,6.07
2018-12-18T16:14:49.084Z,5.23
2018-12-18T16:25:23.648Z,4.23
2018-12-18T16:30:27.557Z,3.23
2018-12-18T16:35:31.829Z,2.37
2018-12-18T16:40:35.288Z,4.30
2018-12-18T16:45:40.261Z,6.77
2018-12-18T16:50:44.600Z,4.70
2018-12-18T16:55:49.391Z,5.77
2018-12-18T17:00:53.702Z,4.20
2018-12-18T17:05:57.237Z,6.23
2018-12-18T17:11:00.989Z,6.77
2018-12-18T17:16:04.578Z,3.60
2018-12-18T17:21:08.110Z,4.33
2018-12-18T17:26:18.520Z,4.83
2018-12-18T17:31:22.774Z,3.73
2018-12-18T17:36:26.928Z,4.77
2018-12-18T17:41:31.322Z,4.17
2018-12-18T17:46:40.893Z,4.23
2018-12-18T17:51:44.728Z,3.63
2018-12-18T17:56:49.712Z,4.67
2018-12-18T18:01:53.880Z,6.10
2018-12-18T18:06:57.773Z,3.20
2018-12-18T18:12:02.017Z,3.47
2018-12-18T18:17:05.589Z,4.50
2018-12-18T18:38:32.520Z,3.97
2018-12-18T18:43:37.076Z,4.30
2018-12-18T18:48:40.663Z,5.80
2018-12-18T18:53:45.210Z,4.67
2018-12-18T19:04:25.202Z,4.90
2018-12-18T19:09:40.704Z,5.57
2018-12-18T19:14:47.443Z,4.70
2018-12-18T19:19:51.240Z,6.83
2018-12-18T19:24:55.460Z,4.60
2018-12-18T19:29:59.641Z,5.70
2018-12-18T19:35:03.147Z,3.07
2018-12-18T19:40:06.828Z,4.10
2018-12-18T19:45:10.942Z,5.17
2018-12-18T19:50:15.540Z,4.53
2018-12-18T19:55:19.697Z,3.77
2018-12-18T20:00:23.835Z,5.50
2018-12-18T20:05:27.406Z,3.13
2018-12-18T20:10:31.001Z,2.57
2018-12-18T20:15:35.608Z,4.07
2018-12-18T20:20:40.063Z,2.73
2018-12-18T20:25:44.156Z,2.40
2018-12-18T20:30:50.111Z,4.73
2018-12-18T20:35:56.480Z,4.37
2018-12-18T20:41:01.312Z,3.77
2018-12-18T20:46:08.201Z,3.30
2018-12-18T20:51:12.637Z,4.20
2018-12-18T20:56:17.346Z,2.17
2018-12-18T21:01:21.499Z,3.53
2018-12-18T21:06:25.421Z,2.43
2018-12-18T21:11:29.043Z,3.97
2018-12-18T21:16:32.879Z,2.37
2018-12-18T21:21:36.749Z,2.70
2018-12-18T21:26:42.703Z,2.93
2018-12-18T21:31:46.657Z,2.77
2018-12-18T21:36:50.236Z,3.70
2018-12-18T21:58:24.498Z,3.53
2018-12-18T22:03:28.651Z,2.63
2018-12-18T22:08:36.783Z,4.03
2018-12-18T22:13:38.783Z,2.57
2018-12-18T22:18:43.129Z,2.60
2018-12-18T22:23:47.003Z,2.47
2018-12-18T22:28:51.633Z,2.33
2018-12-18T22:33:55.904Z,2.43
2018-12-18T22:39:00.629Z,3.00
2018-12-18T22:44:05.496Z,3.43
2018-12-18T22:49:10.147Z,3.47
2018-12-18T22:54:14.024Z,2.80
2018-12-18T22:59:36.442Z,2.37
2018-12-18T23:04:41.353Z,3.57
2018-12-18T23:09:45.756Z,2.47
2018-12-18T23:14:50.337Z,2.90
2018-12-18T23:19:54.609Z,3.63
2018-12-18T23:24:58.119Z,3.07
2018-12-18T23:30:02.805Z,1.90
2018-12-18T23:35:06.464Z,4.43
2018-12-18T23:40:11.543Z,2.63
2018-12-18T23:45:15.499Z,2.50
2018-12-18T23:50:20.339Z,2.43
2018-12-18T23:55:24.312Z,4.00
